Time;durP1;ratioP1;P1;durP2;ratioP2;P2;SDS_P1;SDS_P2;PMS_P1;PMS_P2;Temp;Humidity;BMP_temperature;BMP_pressure;BME280_temperature;BME280_humidity;BME280_pressure;Samples;Min_cycle;Max_cycle;Signal;HPM_P1;HPM_P2
2023/06/01 00:00:18;;;;;;;;;;;14.00;99.90;;;;;;5089730;28;19927;-72
2023/06/01 00:02:45;;;;;;;;;;;14.10;99.90;;;;;;5090252;28;19943;-74
2023/06/01 00:05:10;;;;;;;;;;;14.10;99.90;;;;;;5091015;28;19930;-71
2023/06/01 00:07:36;;;;;;;;;;;14.10;99.90;;;;;;5085519;28;19916;-73
2023/06/01 00:10:02;;;;;;;;;;;14.00;99.90;;;;;;5088772;28;20303;-75
2023/06/01 00:12:27;;;;;;;;;;;14.10;99.90;;;;;;5088590;28;19916;-71
2023/06/01 00:14:57;;;;;;;;;;;14.00;99.90;;;;;;5090293;28;19912;-71
2023/06/01 00:17:23;;;;;;;;;;;14.00;99.90;;;;;;5091915;28;19920;-71
2023/06/01 00:19:48;;;;;;;;;;;13.90;99.90;;;;;;5092860;28;19981;-71
2023/06/01 00:22:15;;;;;;;;;;;13.90;99.90;;;;;;5091891;28;19923;-71
2023/06/01 00:24:41;;;;;;;;;;;13.80;99.90;;;;;;5087220;28;20323;-72
2023/06/01 00:27:07;;;;;;;;;;;13.80;99.90;;;;;;5090418;28;19934;-72
2023/06/01 00:29:33;;;;;;;;;;;13.80;99.90;;;;;;5088489;28;19916;-71
2023/06/01 00:31:58;;;;;;;;;;;13.80;99.90;;;;;;5090536;28;19920;-70
2023/06/01 00:34:24;;;;;;;;;;;13.80;99.90;;;;;;5070314;28;19918;-73
2023/06/01 00:36:49;;;;;;;;;;;13.80;99.90;;;;;;5089017;28;19957;-71
2023/06/01 00:39:15;;;;;;;;;;;13.80;99.90;;;;;;5091304;28;19920;-71
2023/06/01 00:41:41;;;;;;;;;;;13.80;99.90;;;;;;5093631;28;20379;-73
2023/06/01 00:44:06;;;;;;;;;;;13.80;99.90;;;;;;5091602;28;19912;-73
2023/06/01 00:46:32;;;;;;;;;;;13.90;99.90;;;;;;5090188;28;19916;-71
2023/06/01 00:48:58;;;;;;;;;;;14.00;99.90;;;;;;5091239;28;19965;-72
2023/06/01 00:51:24;;;;;;;;;;;13.90;99.90;;;;;;5092292;28;19916;-75
2023/06/01 00:53:49;;;;;;;;;;;13.90;99.90;;;;;;5090470;28;19912;-71
2023/06/01 00:56:16;;;;;;;;;;;13.80;99.90;;;;;;5092700;28;19919;-73
2023/06/01 00:58:42;;;;;;;;;;;13.90;99.90;;;;;;5071530;28;19916;-70
2023/06/01 01:01:08;;;;;;;;;;;13.80;99.90;;;;;;5090176;28;19913;-72
2023/06/01 01:03:38;;;;;;;;;;;13.80;99.90;;;;;;5086820;28;20452;-70
2023/06/01 01:06:28;;;;;;;;;;;13.80;99.90;;;;;;5088332;28;19920;-72
2023/06/01 01:09:08;;;;;;;;;;;13.60;99.90;;;;;;5088736;28;20337;-70
2023/06/01 01:11:36;;;;;;;;;;;13.60;99.90;;;;;;5089153;28;20040;-71
2023/06/01 01:14:10;;;;;;;;;;;13.60;99.90;;;;;;5085875;28;19922;-73
2023/06/01 01:16:40;;;;;;;;;;;13.60;99.90;;;;;;5088565;28;19920;-70
2023/06/01 01:19:25;;;;;;;;;;;13.60;99.90;;;;;;5088233;28;19923;-72
2023/06/01 01:22:01;;;;;;;;;;;13.60;99.90;;;;;;5110920;27;19912;-71
2023/06/01 01:24:50;;;;;;;;;;;13.60;99.90;;;;;;5086516;28;20302;-72
2023/06/01 01:27:37;;;;;;;;;;;13.50;99.90;;;;;;5070863;28;19919;-72
2023/06/01 01:30:05;;;;;;;;;;;13.50;99.90;;;;;;5089486;28;19923;-70
2023/06/01 01:32:31;;;;;;;;;;;13.50;99.90;;;;;;5085356;28;19920;-72
2023/06/01 01:34:58;;;;;;;;;;;13.50;99.90;;;;;;5085081;28;21985;-70
2023/06/01 01:37:23;;;;;;;;;;;13.50;99.90;;;;;;5116729;27;19939;-70
2023/06/01 01:39:49;;;;;;;;;;;13.50;99.90;;;;;;5085866;28;19912;-70
2023/06/01 01:42:15;;;;;;;;;;;13.50;99.90;;;;;;5087089;28;19912;-70
2023/06/01 01:44:40;;;;;;;;;;;13.50;99.90;;;;;;5088546;28;20209;-71
2023/06/01 01:47:15;;;;;;;;;;;13.40;99.90;;;;;;5088468;28;19916;-71
2023/06/01 01:49:46;;;;;;;;;;;13.40;99.90;;;;;;5088615;28;20011;-72
2023/06/01 01:52:41;;;;;;;;;;;13.40;99.90;;;;;;5086428;28;19927;-71
2023/06/01 01:55:10;;;;;;;;;;;13.50;99.90;;;;;;5072725;28;19963;-72
2023/06/01 01:57:36;;;;;;;;;;;13.50;99.90;;;;;;5086040;28;19916;-70
2023/06/01 02:00:03;;;;;;;;;;;13.50;99.90;;;;;;5088243;28;20343;-77
2023/06/01 02:02:29;;;;;;;;;;;13.50;99.90;;;;;;5089126;28;20055;-74
2023/06/01 02:04:55;;;;;;;;;;;13.50;99.90;;;;;;5085675;28;20551;-71
2023/06/01 02:07:21;;;;;;;;;;;13.50;99.90;;;;;;5089426;28;19920;-71
2023/06/01 02:09:46;;;;;;;;;;;13.50;99.90;;;;;;5087290;28;20399;-72
2023/06/01 02:12:12;;;;;;;;;;;13.50;99.90;;;;;;5087685;28;20000;-71
2023/06/01 02:14:37;;;;;;;;;;;13.40;99.90;;;;;;5085007;28;19912;-70
2023/06/01 02:17:03;;;;;;;;;;;13.40;99.90;;;;;;5088729;28;19931;-71
2023/06/01 02:19:28;;;;;;;;;;;13.40;99.90;;;;;;5088002;28;20415;-72
2023/06/01 02:21:54;;;;;;;;;;;13.40;99.90;;;;;;5087716;28;20363;-72
2023/06/01 02:24:20;;;;;;;;;;;13.40;99.90;;;;;;5082411;28;19920;-71
2023/06/01 02:26:48;;;;;;;;;;;13.40;99.90;;;;;;5088906;28;19945;-71
2023/06/01 02:29:14;;;;;;;;;;;13.50;99.90;;;;;;5086684;28;19992;-71
2023/06/01 02:31:40;;;;;;;;;;;13.50;99.90;;;;;;5088136;28;20454;-72
2023/06/01 02:34:05;;;;;;;;;;;13.50;99.90;;;;;;5084985;28;20394;-72
2023/06/01 02:36:32;;;;;;;;;;;13.50;99.90;;;;;;5085364;28;19969;-72
2023/06/01 02:38:58;;;;;;;;;;;13.50;99.90;;;;;;5086603;28;19931;-72
2023/06/01 02:41:24;;;;;;;;;;;13.50;99.90;;;;;;5085349;28;19916;-72
2023/06/01 02:43:50;;;;;;;;;;;13.40;99.90;;;;;;5085907;28;20291;-71
2023/06/01 02:46:17;;;;;;;;;;;13.30;99.90;;;;;;5086988;28;19917;-71
2023/06/01 02:48:43;;;;;;;;;;;13.40;99.90;;;;;;5098477;28;19943;-72
2023/06/01 02:51:08;;;;;;;;;;;13.40;99.90;;;;;;5084072;28;19919;-71
2023/06/01 02:53:34;;;;;;;;;;;13.40;99.90;;;;;;5086229;28;19916;-70
2023/06/01 02:56:00;;;;;;;;;;;13.30;99.90;;;;;;5087505;28;19919;-72
2023/06/01 02:58:25;;;;;;;;;;;13.30;99.90;;;;;;5082767;28;19969;-72
2023/06/01 03:00:51;;;;;;;;;;;13.30;99.90;;;;;;5083156;28;19923;-72
2023/06/01 03:03:16;;;;;;;;;;;13.30;99.90;;;;;;5084394;28;19920;-70
2023/06/01 03:05:43;;;;;;;;;;;13.20;99.90;;;;;;5082546;28;19965;-71
2023/06/01 03:08:08;;;;;;;;;;;13.20;99.90;;;;;;5087829;28;19920;-72
2023/06/01 03:10:34;;;;;;;;;;;13.20;99.90;;;;;;5083258;28;19966;-71
2023/06/01 03:13:00;;;;;;;;;;;13.20;99.90;;;;;;5085409;28;20037;-70
2023/06/01 03:15:27;;;;;;;;;;;13.20;99.90;;;;;;5085736;28;19912;-70
2023/06/01 03:17:52;;;;;;;;;;;13.20;99.90;;;;;;5086881;28;19938;-70
2023/06/01 03:20:18;;;;;;;;;;;13.20;99.90;;;;;;5068395;28;19964;-71
2023/06/01 03:22:44;;;;;;;;;;;13.10;99.90;;;;;;5084601;28;19967;-70
2023/06/01 03:25:12;;;;;;;;;;;13.10;99.90;;;;;;5083624;28;20007;-72
2023/06/01 03:27:41;;;;;;;;;;;13.10;99.90;;;;;;5081021;28;19920;-71
2023/06/01 03:30:09;;;;;;;;;;;13.20;99.90;;;;;;5089115;28;19918;-70
2023/06/01 03:32:36;;;;;;;;;;;13.20;99.90;;;;;;5089223;28;20298;-71
2023/06/01 03:35:02;;;;;;;;;;;13.20;99.90;;;;;;5089441;28;19938;-71
2023/06/01 03:37:28;;;;;;;;;;;13.20;99.90;;;;;;5091378;28;19916;-71
2023/06/01 03:39:53;;;;;;;;;;;13.10;99.90;;;;;;5089666;28;20414;-71
2023/06/01 03:42:19;;;;;;;;;;;13.20;99.90;;;;;;5087548;28;19916;-69
2023/06/01 03:44:45;;;;;;;;;;;13.20;99.90;;;;;;5090463;28;19912;-72
2023/06/01 03:47:10;;;;;;;;;;;13.20;99.90;;;;;;5089690;28;19912;-69
2023/06/01 03:49:36;;;;;;;;;;;13.20;99.90;;;;;;5070630;28;20325;-73
2023/06/01 03:52:01;;;;;;;;;;;13.20;99.90;;;;;;5089620;28;19919;-71
2023/06/01 03:54:27;;;;;;;;;;;13.20;99.90;;;;;;5086244;28;19968;-71
2023/06/01 03:56:52;;;;;;;;;;;13.20;99.90;;;;;;5111804;27;20407;-73
2023/06/01 03:59:18;;;;;;;;;;;13.20;99.90;;;;;;5071279;28;19916;-72
2023/06/01 04:01:48;;;;;;;;;;;13.10;99.90;;;;;;5091439;28;20011;-73
2023/06/01 04:04:16;;;;;;;;;;;13.10;99.90;;;;;;5089157;28;19912;-71
2023/06/01 04:06:44;;;;;;;;;;;13.10;99.90;;;;;;5088569;28;20011;-72
2023/06/01 04:09:11;;;;;;;;;;;13.20;99.90;;;;;;5088050;28;19935;-72
2023/06/01 04:11:38;;;;;;;;;;;13.20;99.90;;;;;;5090148;28;19931;-71
2023/06/01 04:14:04;;;;;;;;;;;13.20;99.90;;;;;;5088349;28;19945;-69
2023/06/01 04:16:30;;;;;;;;;;;13.20;99.90;;;;;;5088085;28;19920;-71
2023/06/01 04:18:55;;;;;;;;;;;13.20;99.90;;;;;;5085443;28;19927;-71
2023/06/01 04:21:21;;;;;;;;;;;13.10;99.90;;;;;;5088628;28;19916;-70
2023/06/01 04:23:47;;;;;;;;;;;13.10;99.90;;;;;;5085175;28;19927;-71
2023/06/01 04:26:17;;;;;;;;;;;13.10;99.90;;;;;;5083876;28;19912;-71
2023/06/01 04:28:46;;;;;;;;;;;13.20;99.90;;;;;;5090036;28;20274;-71
2023/06/01 04:31:18;;;;;;;;;;;13.20;99.90;;;;;;5085695;28;19920;-72
2023/06/01 04:33:53;;;;;;;;;;;13.20;99.90;;;;;;5084588;28;19916;-69
2023/06/01 04:36:21;;;;;;;;;;;13.20;99.90;;;;;;5086946;28;19990;-70
2023/06/01 04:38:50;;;;;;;;;;;13.10;99.90;;;;;;5086849;28;20276;-70
2023/06/01 04:41:17;;;;;;;;;;;13.20;99.90;;;;;;5092428;28;20821;-69
2023/06/01 04:43:42;;;;;;;;;;;13.10;99.90;;;;;;5085645;28;19912;-71
2023/06/01 04:46:08;;;;;;;;;;;13.10;99.90;;;;;;5085564;28;19919;-71
2023/06/01 04:48:33;;;;;;;;;;;13.10;99.90;;;;;;5084938;28;19919;-69
2023/06/01 04:50:59;;;;;;;;;;;13.10;99.90;;;;;;5090059;28;19912;-71
2023/06/01 04:53:26;;;;;;;;;;;13.20;99.90;;;;;;5086622;28;20404;-69
2023/06/01 04:55:53;;;;;;;;;;;13.20;99.90;;;;;;5089512;28;19920;-70
2023/06/01 04:58:19;;;;;;;;;;;13.30;99.90;;;;;;5083241;28;19912;-71
2023/06/01 05:00:45;;;;;;;;;;;13.30;99.90;;;;;;5087937;28;20287;-69
2023/06/01 05:03:11;;;;;;;;;;;13.30;99.90;;;;;;5088349;28;20504;-70
2023/06/01 05:05:36;;;;;;;;;;;13.20;99.90;;;;;;5078669;28;19927;-69
2023/06/01 05:08:02;;;;;;;;;;;13.30;99.90;;;;;;5083316;28;21451;-74
2023/06/01 05:10:28;;;;;;;;;;;13.40;99.90;;;;;;5083222;28;19994;-71
2023/06/01 05:12:53;;;;;;;;;;;13.40;99.90;;;;;;5088747;28;19943;-70
2023/06/01 05:15:19;;;;;;;;;;;13.40;99.90;;;;;;5086018;28;19916;-72
2023/06/01 05:17:44;;;;;;;;;;;13.50;99.90;;;;;;5083633;28;19916;-70
2023/06/01 05:20:11;;;;;;;;;;;13.50;99.90;;;;;;5070492;28;20295;-69
2023/06/01 05:22:37;;;;;;;;;;;13.60;99.90;;;;;;5082381;28;19950;-70
2023/06/01 05:25:03;;;;;;;;;;;13.50;99.90;;;;;;5087032;28;20337;-69
2023/06/01 05:27:28;;;;;;;;;;;13.60;99.90;;;;;;5082591;28;19916;-73
2023/06/01 05:29:55;;;;;;;;;;;13.50;99.90;;;;;;5086680;28;20038;-72
2023/06/01 05:32:20;;;;;;;;;;;13.60;99.90;;;;;;5080917;28;19982;-69
2023/06/01 05:34:46;;;;;;;;;;;13.50;99.90;;;;;;5083024;28;21554;-74
2023/06/01 05:37:11;;;;;;;;;;;13.50;99.90;;;;;;5079939;28;19943;-71
2023/06/01 05:39:37;;;;;;;;;;;13.50;99.90;;;;;;5080486;28;19920;-71
2023/06/01 05:42:03;;;;;;;;;;;14.20;99.90;;;;;;5106495;27;19988;-69
2023/06/01 05:44:30;;;;;;;;;;;14.50;99.90;;;;;;5082127;28;19916;-73
2023/06/01 05:46:56;;;;;;;;;;;14.40;99.90;;;;;;5065322;28;19923;-78
2023/06/01 05:49:22;;;;;;;;;;;14.00;99.90;;;;;;5063319;28;20015;-69
2023/06/01 05:51:47;;;;;;;;;;;13.70;99.90;;;;;;5073393;28;21176;-74
2023/06/01 05:54:13;;;;;;;;;;;13.50;99.90;;;;;;5083373;28;19924;-75
2023/06/01 05:56:40;;;;;;;;;;;13.50;99.90;;;;;;5087967;28;19916;-75
2023/06/01 05:59:06;;;;;;;;;;;13.50;99.90;;;;;;5085136;28;19912;-70
2023/06/01 06:01:31;;;;;;;;;;;13.50;99.90;;;;;;5087879;28;19912;-71
2023/06/01 06:03:57;;;;;;;;;;;13.50;99.90;;;;;;5081558;28;19955;-70
2023/06/01 06:06:23;;;;;;;;;;;13.50;99.90;;;;;;5076472;28;19931;-70
2023/06/01 06:08:49;;;;;;;;;;;13.50;99.90;;;;;;5068093;28;19924;-70
2023/06/01 06:11:15;;;;;;;;;;;13.40;99.90;;;;;;5070876;28;19954;-69
2023/06/01 06:13:40;;;;;;;;;;;13.40;99.90;;;;;;5070750;28;19912;-72
2023/06/01 06:16:06;;;;;;;;;;;13.50;99.90;;;;;;5082041;28;20548;-70
2023/06/01 06:18:31;;;;;;;;;;;13.50;99.90;;;;;;5085332;28;19916;-70
2023/06/01 06:20:57;;;;;;;;;;;13.40;99.90;;;;;;5082224;28;19965;-69
2023/06/01 06:23:23;;;;;;;;;;;13.50;99.90;;;;;;5077408;28;20258;-73
2023/06/01 06:25:48;;;;;;;;;;;13.50;99.90;;;;;;5076925;28;19923;-71
2023/06/01 06:28:15;;;;;;;;;;;13.60;99.90;;;;;;5082554;28;19923;-72
2023/06/01 06:30:40;;;;;;;;;;;13.60;99.90;;;;;;5073666;28;20341;-70
2023/06/01 06:33:06;;;;;;;;;;;13.50;99.90;;;;;;5084894;28;19969;-71
2023/06/01 06:35:32;;;;;;;;;;;13.60;99.90;;;;;;5084044;28;19916;-70
2023/06/01 06:37:57;;;;;;;;;;;13.70;99.90;;;;;;5084006;28;19980;-69
2023/06/01 06:40:23;;;;;;;;;;;13.60;99.90;;;;;;5077927;28;19920;-72
2023/06/01 06:42:50;;;;;;;;;;;13.70;99.90;;;;;;5084453;28;19912;-70
2023/06/01 06:45:16;;;;;;;;;;;13.60;99.90;;;;;;5066601;28;19912;-72
2023/06/01 06:47:41;;;;;;;;;;;13.70;99.90;;;;;;5087585;28;20371;-70
2023/06/01 06:50:07;;;;;;;;;;;13.70;99.90;;;;;;5085859;28;19916;-71
2023/06/01 06:52:33;;;;;;;;;;;13.60;99.90;;;;;;5086782;28;20039;-72
2023/06/01 06:54:58;;;;;;;;;;;13.60;99.90;;;;;;5088312;28;20426;-70
2023/06/01 06:57:24;;;;;;;;;;;13.60;99.90;;;;;;5087395;28;20086;-71
2023/06/01 06:59:50;;;;;;;;;;;13.60;99.90;;;;;;5088622;28;19912;-71
2023/06/01 07:02:16;;;;;;;;;;;13.60;99.90;;;;;;5089560;28;20228;-71
2023/06/01 07:04:41;;;;;;;;;;;13.60;99.90;;;;;;5083350;28;19916;-75
2023/06/01 07:07:07;;;;;;;;;;;13.70;99.90;;;;;;5088170;28;19916;-71
2023/06/01 07:09:33;;;;;;;;;;;13.80;99.90;;;;;;5084772;28;19916;-71
2023/06/01 07:11:58;;;;;;;;;;;13.70;99.90;;;;;;5087833;28;20326;-73
2023/06/01 07:14:26;;;;;;;;;;;13.80;99.90;;;;;;5081059;28;20274;-71
2023/06/01 07:16:52;;;;;;;;;;;13.90;99.90;;;;;;5084313;28;19916;-71
2023/06/01 07:19:18;;;;;;;;;;;14.00;99.90;;;;;;5085384;28;19935;-71
2023/06/01 07:21:44;;;;;;;;;;;14.00;99.90;;;;;;5087439;28;20372;-71
2023/06/01 07:24:10;;;;;;;;;;;14.10;99.90;;;;;;5084808;28;19919;-73
2023/06/01 07:26:36;;;;;;;;;;;14.10;99.90;;;;;;5082849;28;20114;-73
2023/06/01 07:29:01;;;;;;;;;;;14.10;99.90;;;;;;5083444;28;19916;-71
2023/06/01 07:31:27;;;;;;;;;;;14.20;99.90;;;;;;5083455;28;19969;-73
2023/06/01 07:33:55;;;;;;;;;;;14.10;99.90;;;;;;5085211;28;19916;-73
2023/06/01 07:36:23;;;;;;;;;;;14.10;99.90;;;;;;5086032;28;20291;-73
2023/06/01 07:38:51;;;;;;;;;;;14.00;99.90;;;;;;5085211;28;19916;-73
2023/06/01 07:41:17;;;;;;;;;;;14.00;99.90;;;;;;5082193;28;20000;-71
2023/06/01 07:43:42;;;;;;;;;;;13.90;99.90;;;;;;5083610;28;19955;-73
2023/06/01 07:46:08;;;;;;;;;;;13.90;99.90;;;;;;5087054;28;20324;-72
2023/06/01 07:48:37;;;;;;;;;;;13.80;99.90;;;;;;5083732;28;19920;-71
2023/06/01 07:51:03;;;;;;;;;;;13.80;99.90;;;;;;5110749;27;19923;-73
2023/06/01 07:53:29;;;;;;;;;;;13.80;99.90;;;;;;5067117;28;19920;-70
2023/06/01 07:55:55;;;;;;;;;;;13.80;99.90;;;;;;5083781;28;19912;-70
2023/06/01 07:58:20;;;;;;;;;;;13.90;99.90;;;;;;5085267;28;20371;-72
2023/06/01 08:00:46;;;;;;;;;;;14.00;99.90;;;;;;5083303;28;19916;-73
2023/06/01 08:03:12;;;;;;;;;;;14.00;99.90;;;;;;5084610;28;19977;-73
2023/06/01 08:05:42;;;;;;;;;;;14.00;99.90;;;;;;5085391;28;20306;-73
2023/06/01 08:08:08;;;;;;;;;;;14.00;99.90;;;;;;5089418;28;19912;-72
2023/06/01 08:10:38;;;;;;;;;;;14.00;99.90;;;;;;5112870;27;19912;-72
2023/06/01 08:13:04;;;;;;;;;;;14.10;99.90;;;;;;5084858;28;19916;-71
2023/06/01 08:15:30;;;;;;;;;;;14.20;99.90;;;;;;5090596;28;20020;-73
2023/06/01 08:17:56;;;;;;;;;;;14.30;99.90;;;;;;5091331;28;20367;-71
2023/06/01 08:20:22;;;;;;;;;;;14.30;99.90;;;;;;5086776;28;20354;-75
2023/06/01 08:22:49;;;;;;;;;;;14.30;99.90;;;;;;5087673;28;19913;-73
2023/06/01 08:25:14;;;;;;;;;;;14.30;99.90;;;;;;5089773;28;19966;-73
2023/06/01 08:27:41;;;;;;;;;;;14.30;99.90;;;;;;5092333;28;19912;-71
2023/06/01 08:30:07;;;;;;;;;;;14.30;99.90;;;;;;5090392;28;19967;-69
2023/06/01 08:32:33;;;;;;;;;;;14.30;99.90;;;;;;5087645;28;19927;-71
2023/06/01 08:34:58;;;;;;;;;;;14.30;99.90;;;;;;5086096;28;19998;-72
2023/06/01 08:37:24;;;;;;;;;;;14.40;99.90;;;;;;5096922;28;19977;-72
2023/06/01 08:39:50;;;;;;;;;;;14.40;99.90;;;;;;5096742;28;19916;-71
2023/06/01 08:42:31;;;;;;;;;;;14.50;99.90;;;;;;5089386;28;20342;-72
2023/06/01 08:44:57;;;;;;;;;;;14.60;99.90;;;;;;5090775;28;20029;-72
2023/06/01 08:47:27;;;;;;;;;;;14.70;99.90;;;;;;5087302;28;20030;-72
2023/06/01 08:49:53;;;;;;;;;;;14.70;99.90;;;;;;5088328;28;19920;-70
2023/06/01 08:52:20;;;;;;;;;;;14.60;99.90;;;;;;5086943;28;19920;-72
2023/06/01 08:54:46;;;;;;;;;;;14.60;99.90;;;;;;5084765;28;19923;-70
2023/06/01 08:57:15;;;;;;;;;;;14.60;99.90;;;;;;5094154;27;19961;-72
2023/06/01 08:59:41;;;;;;;;;;;14.50;99.90;;;;;;5084953;28;19939;-70
2023/06/01 09:02:08;;;;;;;;;;;14.50;99.90;;;;;;5086674;28;20410;-72
2023/06/01 09:04:41;;;;;;;;;;;14.50;99.90;;;;;;5088364;28;19934;-71
2023/06/01 09:07:07;;;;;;;;;;;14.60;99.90;;;;;;5115368;27;19916;-72
2023/06/01 09:09:33;;;;;;;;;;;14.60;99.90;;;;;;5097830;28;19908;-72
2023/06/01 09:12:17;;;;;;;;;;;14.60;99.90;;;;;;5088524;28;19916;-70
2023/06/01 09:14:43;;;;;;;;;;;14.50;99.90;;;;;;5081515;28;19995;-72
2023/06/01 09:17:12;;;;;;;;;;;14.50;99.90;;;;;;5089109;28;20038;-71
2023/06/01 09:19:43;;;;;;;;;;;14.60;99.90;;;;;;5085515;28;19959;-73
2023/06/01 09:22:08;;;;;;;;;;;14.70;99.90;;;;;;5084337;28;19916;-72
2023/06/01 09:24:34;;;;;;;;;;;14.70;99.90;;;;;;5098720;27;19916;-72
2023/06/01 09:27:00;;;;;;;;;;;14.80;99.90;;;;;;5085318;28;19916;-72
2023/06/01 09:29:26;;;;;;;;;;;14.80;99.90;;;;;;5087646;28;20043;-72
2023/06/01 09:31:51;;;;;;;;;;;14.70;99.90;;;;;;5068270;28;19920;-72
2023/06/01 09:34:21;;;;;;;;;;;14.80;99.90;;;;;;5086848;28;19916;-73
2023/06/01 09:36:47;;;;;;;;;;;14.80;99.90;;;;;;5089693;28;20325;-73
2023/06/01 09:39:16;;;;;;;;;;;14.90;99.90;;;;;;5087230;28;19922;-71
2023/06/01 09:41:51;;;;;;;;;;;15.00;99.90;;;;;;5115080;27;19912;-73
2023/06/01 09:44:31;;;;;;;;;;;15.00;99.90;;;;;;5087564;28;20069;-73
2023/06/01 09:47:01;;;;;;;;;;;15.10;99.90;;;;;;5086364;28;20391;-73
2023/06/01 09:49:28;;;;;;;;;;;15.10;99.90;;;;;;5069295;28;19919;-72
2023/06/01 09:52:03;;;;;;;;;;;15.20;99.90;;;;;;5087969;28;20034;-72
2023/06/01 09:54:29;;;;;;;;;;;15.30;99.90;;;;;;5085831;28;20387;-73
2023/06/01 09:56:55;;;;;;;;;;;15.50;99.90;;;;;;5072570;28;20360;-71
2023/06/01 09:59:21;;;;;;;;;;;15.50;99.90;;;;;;5071257;28;19923;-71
2023/06/01 10:01:54;;;;;;;;;;;15.50;99.90;;;;;;5091410;28;19920;-72
2023/06/01 10:04:24;;;;;;;;;;;15.40;99.90;;;;;;5083417;28;19985;-73
2023/06/01 10:06:54;;;;;;;;;;;15.60;99.90;;;;;;5085349;28;19918;-72
2023/06/01 10:09:20;;;;;;;;;;;15.60;99.90;;;;;;5085378;28;19939;-73
2023/06/01 10:11:47;;;;;;;;;;;15.60;99.90;;;;;;5088394;28;20343;-72
2023/06/01 10:14:13;;;;;;;;;;;15.60;99.90;;;;;;5086314;28;19951;-72
2023/06/01 10:16:40;;;;;;;;;;;15.50;99.90;;;;;;5086114;28;20049;-72
2023/06/01 10:19:07;;;;;;;;;;;15.40;99.90;;;;;;5084738;28;19931;-70
2023/06/01 10:21:33;;;;;;;;;;;15.50;99.90;;;;;;5087634;28;19922;-72
2023/06/01 10:23:58;;;;;;;;;;;15.50;99.90;;;;;;5086496;28;20015;-70
2023/06/01 10:26:26;;;;;;;;;;;15.60;99.90;;;;;;5083354;28;20769;-73
2023/06/01 10:28:52;;;;;;;;;;;15.60;99.90;;;;;;5089215;28;20390;-73
2023/06/01 10:31:37;;;;;;;;;;;15.50;99.90;;;;;;5088113;28;19952;-73
2023/06/01 10:34:03;;;;;;;;;;;15.50;99.90;;;;;;5084947;28;20360;-74
2023/06/01 10:36:47;;;;;;;;;;;15.60;99.90;;;;;;5088508;28;19916;-72
2023/06/01 10:39:25;;;;;;;;;;;15.50;99.90;;;;;;5087113;28;21474;-73
2023/06/01 10:41:51;;;;;;;;;;;15.50;99.90;;;;;;5089424;28;20375;-71
2023/06/01 10:44:46;;;;;;;;;;;15.50;99.90;;;;;;5111646;27;19923;-71
2023/06/01 10:47:12;;;;;;;;;;;15.50;99.90;;;;;;5083952;28;19928;-76
2023/06/01 10:49:46;;;;;;;;;;;15.60;99.90;;;;;;5083977;28;19965;-71
2023/06/01 10:52:34;;;;;;;;;;;15.80;99.90;;;;;;5112215;27;19915;-71
2023/06/01 10:55:06;;;;;;;;;;;15.70;99.90;;;;;;5088182;28;20003;-70
2023/06/01 10:57:32;;;;;;;;;;;15.90;99.90;;;;;;5096733;28;20440;-71
2023/06/01 11:00:16;;;;;;;;;;;15.90;99.90;;;;;;5088505;28;19920;-72
2023/06/01 11:02:44;;;;;;;;;;;15.90;99.90;;;;;;5106324;27;19919;-69
2023/06/01 11:05:28;;;;;;;;;;;15.70;99.90;;;;;;5084757;28;20387;-70
2023/06/01 11:07:54;;;;;;;;;;;15.80;99.90;;;;;;5087823;28;20040;-74
2023/06/01 11:10:38;;;;;;;;;;;15.80;99.90;;;;;;5084914;28;19990;-69
2023/06/01 11:13:11;;;;;;;;;;;15.80;99.90;;;;;;5093979;28;19916;-69
2023/06/01 11:15:38;;;;;;;;;;;15.90;99.90;;;;;;5087379;28;19916;-70
2023/06/01 11:18:23;;;;;;;;;;;16.10;99.90;;;;;;5084914;28;19943;-69
2023/06/01 11:20:49;;;;;;;;;;;16.00;99.90;;;;;;5088014;28;19989;-71
2023/06/01 11:23:15;;;;;;;;;;;16.00;99.90;;;;;;5080189;28;20019;-73
2023/06/01 11:25:41;;;;;;;;;;;16.40;99.90;;;;;;5069338;28;19916;-72
2023/06/01 11:28:08;;;;;;;;;;;16.60;99.90;;;;;;5083446;28;19952;-69
2023/06/01 11:30:35;;;;;;;;;;;16.50;99.90;;;;;;5085271;28;19946;-71
2023/06/01 11:33:04;;;;;;;;;;;16.40;99.90;;;;;;5086887;28;19971;-75
2023/06/01 11:35:29;;;;;;;;;;;16.30;99.90;;;;;;5087390;28;20344;-73
2023/06/01 11:37:55;;;;;;;;;;;16.40;99.90;;;;;;5087413;28;19916;-70
2023/06/01 11:40:21;;;;;;;;;;;16.40;99.90;;;;;;5114529;27;19908;-76
2023/06/01 11:42:47;;;;;;;;;;;16.30;99.90;;;;;;5111612;27;20291;-72
2023/06/01 11:45:17;;;;;;;;;;;16.30;99.90;;;;;;5082371;28;20014;-73
2023/06/01 11:47:44;;;;;;;;;;;16.20;99.90;;;;;;5083851;28;20023;-70
2023/06/01 11:50:20;;;;;;;;;;;16.20;99.90;;;;;;5089351;28;19912;-74
2023/06/01 11:52:45;;;;;;;;;;;16.20;99.90;;;;;;5091258;28;19970;-70
2023/06/01 11:55:11;;;;;;;;;;;16.10;99.90;;;;;;5089602;28;20026;-70
2023/06/01 11:57:40;;;;;;;;;;;16.10;99.90;;;;;;5090569;28;19965;-70
2023/06/01 12:00:12;;;;;;;;;;;16.20;99.90;;;;;;5087506;28;19974;-69
2023/06/01 12:02:38;;;;;;;;;;;16.20;99.90;;;;;;5090545;28;19916;-72
2023/06/01 12:05:11;;;;;;;;;;;16.00;99.90;;;;;;5090229;28;19923;-71
2023/06/01 12:07:44;;;;;;;;;;;15.90;99.90;;;;;;5091218;28;19912;-72
2023/06/01 12:10:16;;;;;;;;;;;15.70;99.90;;;;;;5100075;28;20274;-70
2023/06/01 12:12:43;;;;;;;;;;;15.60;99.90;;;;;;5091984;28;20004;-71
2023/06/01 12:15:12;;;;;;;;;;;15.50;99.90;;;;;;5089690;28;19983;-71
2023/06/01 12:17:53;;;;;;;;;;;15.50;99.90;;;;;;5089814;28;19928;-72
2023/06/01 12:20:25;;;;;;;;;;;15.50;99.90;;;;;;5094600;28;19913;-71
2023/06/01 12:22:51;;;;;;;;;;;15.50;99.90;;;;;;5105219;28;20001;-70
2023/06/01 12:25:16;;;;;;;;;;;15.70;99.90;;;;;;5092341;28;19945;-70
2023/06/01 12:27:42;;;;;;;;;;;16.10;99.90;;;;;;5090519;28;19923;-71
2023/06/01 12:30:20;;;;;;;;;;;16.60;99.90;;;;;;5090161;28;19908;-70
2023/06/01 12:32:46;;;;;;;;;;;17.00;99.90;;;;;;5090017;28;19916;-73
2023/06/01 12:35:12;;;;;;;;;;;17.40;99.90;;;;;;5090579;28;19965;-70
2023/06/01 12:37:37;;;;;;;;;;;17.60;99.90;;;;;;5089155;28;19920;-74
2023/06/01 12:40:03;;;;;;;;;;;17.70;99.90;;;;;;5091302;28;19995;-74
2023/06/01 12:42:39;;;;;;;;;;;17.70;99.90;;;;;;5092213;28;19916;-72
2023/06/01 12:45:05;;;;;;;;;;;18.20;99.80;;;;;;5090731;28;19916;-70
2023/06/01 12:47:41;;;;;;;;;;;18.10;99.20;;;;;;5091338;28;19912;-71
2023/06/01 12:50:12;;;;;;;;;;;17.70;99.90;;;;;;5089173;28;20011;-74
2023/06/01 12:52:38;;;;;;;;;;;17.60;99.80;;;;;;5091373;28;20145;-74
2023/06/01 12:55:04;;;;;;;;;;;17.60;99.90;;;;;;5091635;28;20023;-73
2023/06/01 12:57:30;;;;;;;;;;;18.00;99.20;;;;;;5088825;28;19924;-72
2023/06/01 12:59:56;;;;;;;;;;;18.30;98.80;;;;;;5092091;28;19912;-72
2023/06/01 13:02:23;;;;;;;;;;;18.30;98.50;;;;;;5090348;28;19977;-70
2023/06/01 13:04:50;;;;;;;;;;;18.10;98.20;;;;;;5091729;28;19916;-72
2023/06/01 13:07:16;;;;;;;;;;;18.30;98.40;;;;;;5090289;28;20032;-70
2023/06/01 13:09:41;;;;;;;;;;;19.00;97.70;;;;;;5087913;28;20037;-71
2023/06/01 13:12:09;;;;;;;;;;;19.60;96.30;;;;;;5090538;28;20506;-71
2023/06/01 13:14:34;;;;;;;;;;;19.50;95.90;;;;;;5113993;27;20329;-71
2023/06/01 13:17:00;;;;;;;;;;;19.30;95.20;;;;;;5088034;28;20372;-72
2023/06/01 13:19:26;;;;;;;;;;;19.80;94.30;;;;;;5088245;28;19912;-70
2023/06/01 13:21:51;;;;;;;;;;;20.50;93.60;;;;;;5091173;28;20124;-71
2023/06/01 13:24:17;;;;;;;;;;;21.00;92.00;;;;;;5090774;28;19943;-73
2023/06/01 13:26:44;;;;;;;;;;;20.90;91.40;;;;;;5090896;28;20291;-73
2023/06/01 13:29:10;;;;;;;;;;;21.20;90.50;;;;;;5085761;28;19922;-73
2023/06/01 13:31:37;;;;;;;;;;;21.00;90.60;;;;;;5073229;28;19912;-73
2023/06/01 13:34:03;;;;;;;;;;;20.70;90.30;;;;;;5089580;28;19919;-76
2023/06/01 13:36:29;;;;;;;;;;;20.70;90.50;;;;;;5090779;28;19920;-71
2023/06/01 13:38:55;;;;;;;;;;;20.70;89.80;;;;;;5089747;28;19912;-74
2023/06/01 13:41:21;;;;;;;;;;;20.20;90.30;;;;;;5073067;28;20007;-73
2023/06/01 13:43:47;;;;;;;;;;;20.00;91.30;;;;;;5091659;28;19912;-70
2023/06/01 13:46:12;;;;;;;;;;;20.90;90.50;;;;;;5090174;28;19923;-70
2023/06/01 13:48:38;;;;;;;;;;;22.00;87.10;;;;;;5085845;28;19958;-77
2023/06/01 13:51:05;;;;;;;;;;;21.90;85.10;;;;;;5083310;28;19912;-79
2023/06/01 13:53:30;;;;;;;;;;;21.80;85.00;;;;;;5089439;28;19981;-72
2023/06/01 13:55:56;;;;;;;;;;;21.30;85.10;;;;;;5110640;27;19916;-70
2023/06/01 13:58:22;;;;;;;;;;;20.80;87.40;;;;;;5084731;28;20163;-70
2023/06/01 14:00:47;;;;;;;;;;;21.40;84.60;;;;;;5086450;28;20383;-74
2023/06/01 14:03:13;;;;;;;;;;;21.40;83.10;;;;;;5071559;28;20336;-70
2023/06/01 14:05:39;;;;;;;;;;;21.70;81.10;;;;;;5084557;28;19926;-72
2023/06/01 14:08:05;;;;;;;;;;;21.90;81.30;;;;;;5086228;28;19937;-70
2023/06/01 14:10:31;;;;;;;;;;;23.20;77.10;;;;;;5087027;28;19923;-72
2023/06/01 14:12:57;;;;;;;;;;;24.80;71.30;;;;;;5070706;28;19923;-73
2023/06/01 14:15:22;;;;;;;;;;;24.50;68.70;;;;;;5088175;28;19924;-69
2023/06/01 14:17:50;;;;;;;;;;;23.70;69.40;;;;;;5085619;28;19975;-70